createdAt,value
2023-01-07T00:00:06.157Z,1.42
2023-01-07T00:05:10.774Z,1.85
2023-01-07T00:10:09.749Z,2.42
2023-01-07T00:15:09.013Z,2.20
2023-01-07T00:20:08.077Z,1.33
2023-01-07T00:25:07.275Z,2.00
2023-01-07T00:30:06.635Z,2.08
2023-01-07T00:35:21.434Z,2.45
2023-01-07T00:40:21.618Z,1.80
2023-01-07T00:45:25.331Z,3.50
2023-01-07T00:50:26.339Z,1.88
2023-01-07T00:55:25.787Z,1.58
2023-01-07T01:00:26.472Z,1.33
2023-01-07T01:05:26.340Z,2.42
2023-01-07T01:10:25.182Z,2.58
2023-01-07T01:15:24.383Z,1.88
2023-01-07T01:20:23.456Z,1.90
2023-01-07T01:25:22.239Z,2.55
2023-01-07T01:30:21.186Z,3.47
2023-01-07T01:35:21.079Z,2.35
2023-01-07T01:40:20.120Z,1.48
2023-01-07T01:45:20.625Z,0.82
2023-01-07T01:50:26.187Z,1.85
2023-01-07T01:55:32.377Z,0.60
2023-01-07T02:00:33.875Z,1.25
2023-01-07T02:05:38.640Z,0.93
2023-01-07T02:10:39.458Z,1.65
2023-01-07T02:15:52.074Z,1.85
2023-01-07T02:21:03.076Z,0.73
2023-01-07T02:26:36.206Z,2.28
2023-01-07T02:31:53.712Z,1.55
2023-01-07T02:36:55.125Z,0.70
2023-01-07T02:42:18.200Z,1.92
2023-01-07T02:47:57.727Z,2.28
2023-01-07T02:52:56.537Z,0.82
2023-01-07T02:58:19.695Z,0.80
2023-01-07T03:03:37.098Z,0.80
2023-01-07T03:08:49.693Z,0.70
2023-01-07T03:13:58.950Z,0.60
2023-01-07T03:19:11.665Z,0.82
2023-01-07T03:24:10.776Z,0.57
2023-01-07T03:29:12.542Z,0.90
2023-01-07T03:34:16.865Z,1.33
2023-01-07T03:44:22.161Z,0.77
2023-01-07T03:49:21.271Z,0.50
2023-01-07T03:54:21.411Z,0.57
2023-01-07T03:59:20.415Z,3.33
2023-01-07T04:04:20.235Z,1.80
2023-01-07T04:09:19.451Z,0.50
2023-01-07T04:14:18.505Z,0.68
2023-01-07T04:19:18.534Z,0.70
2023-01-07T04:24:18.126Z,1.08
2023-01-07T04:29:18.402Z,1.05
2023-01-07T04:34:19.210Z,2.00
2023-01-07T04:39:18.253Z,1.23
2023-01-07T04:44:17.866Z,1.58
2023-01-07T04:49:17.062Z,0.90
2023-01-07T04:54:15.876Z,2.38
2023-01-07T04:59:14.874Z,2.17
2023-01-07T05:04:14.608Z,2.95
2023-01-07T05:09:14.626Z,2.15
2023-01-07T05:14:14.056Z,1.67
2023-01-07T05:19:13.264Z,1.75
2023-01-07T05:24:16.587Z,2.50
2023-01-07T05:29:16.729Z,1.98
2023-01-07T05:34:16.949Z,1.45
2023-01-07T05:39:17.265Z,1.55
2023-01-07T05:44:16.127Z,1.27
2023-01-07T05:49:14.912Z,1.77
2023-01-07T05:54:13.652Z,1.40
2023-01-07T05:59:12.408Z,1.48
2023-01-07T06:04:12.249Z,2.60
2023-01-07T06:09:11.765Z,1.33
2023-01-07T06:14:10.532Z,1.90
2023-01-07T06:19:10.655Z,2.38
2023-01-07T06:24:10.903Z,3.17
2023-01-07T06:29:10.878Z,3.08
2023-01-07T06:34:09.629Z,3.03
2023-01-07T06:39:08.424Z,2.45
2023-01-07T06:44:07.388Z,2.75
2023-01-07T06:49:06.559Z,3.08
2023-01-07T06:54:05.456Z,3.38
2023-01-07T06:59:04.416Z,4.50
2023-01-07T07:04:03.468Z,5.32
2023-01-07T07:09:02.427Z,5.45
2023-01-07T07:14:01.468Z,4.40
2023-01-07T07:19:00.465Z,5.47
2023-01-07T07:24:00.650Z,3.90
2023-01-07T07:28:59.465Z,5.57
2023-01-07T07:33:58.642Z,5.47
2023-01-07T07:38:57.625Z,4.32
2023-01-07T07:43:56.627Z,4.88
2023-01-07T07:48:55.368Z,5.20
2023-01-07T07:53:54.250Z,4.53
2023-01-07T07:58:53.050Z,6.32
2023-01-07T08:03:51.919Z,4.60
2023-01-07T08:08:50.670Z,5.18
2023-01-07T08:13:49.513Z,5.32
2023-01-07T08:18:48.272Z,4.75
2023-01-07T08:23:47.008Z,5.97
2023-01-07T08:28:51.798Z,5.90
2023-01-07T08:33:50.762Z,6.85
2023-01-07T08:38:53.678Z,5.95
2023-01-07T08:43:53.683Z,7.57
2023-01-07T08:48:52.443Z,8.52
2023-01-07T08:53:51.142Z,9.55
2023-01-07T08:58:49.968Z,7.80
2023-01-07T09:03:48.790Z,7.65
2023-01-07T09:08:47.633Z,10.68
2023-01-07T09:13:46.426Z,7.63
2023-01-07T09:18:45.505Z,7.95
2023-01-07T09:23:44.207Z,10.07
2023-01-07T09:28:43.107Z,10.05
2023-01-07T09:33:41.962Z,10.88
2023-01-07T09:38:40.954Z,9.40
2023-01-07T09:44:01.085Z,9.25
2023-01-07T09:49:03.977Z,9.77
2023-01-07T09:54:05.400Z,9.77
2023-01-07T09:59:05.843Z,10.13
2023-01-07T10:04:49.761Z,9.23
2023-01-07T10:10:00.642Z,9.73
2023-01-07T10:15:24.929Z,9.65
2023-01-07T10:20:35.043Z,9.63
2023-01-07T10:25:54.975Z,8.85
2023-01-07T10:30:53.745Z,8.82
2023-01-07T10:36:12.127Z,8.20
2023-01-07T10:41:38.225Z,7.88
2023-01-07T10:46:43.101Z,9.00
2023-01-07T10:52:10.287Z,8.18
2023-01-07T10:57:30.069Z,7.40
2023-01-07T11:02:29.592Z,6.60
2023-01-07T11:07:40.399Z,7.72
2023-01-07T11:12:53.495Z,6.97
2023-01-07T11:17:57.729Z,7.80
2023-01-07T11:22:56.471Z,5.75
2023-01-07T11:28:01.629Z,8.32
2023-01-07T11:33:04.317Z,6.32
2023-01-07T11:38:27.801Z,7.57
2023-01-07T11:43:33.156Z,6.03
2023-01-07T11:48:35.140Z,7.47
2023-01-07T11:53:42.080Z,6.88
2023-01-07T11:58:44.389Z,3.30
2023-01-07T12:03:52.115Z,3.95
2023-01-07T12:09:01.202Z,6.80
2023-01-07T12:14:08.072Z,5.07
2023-01-07T12:19:43.962Z,4.63
2023-01-07T12:25:08.698Z,6.30
2023-01-07T12:30:28.895Z,6.35
2023-01-07T12:35:37.031Z,4.50
2023-01-07T12:40:44.809Z,5.47
2023-01-07T12:45:50.784Z,4.55
2023-01-07T12:50:54.360Z,5.32
2023-01-07T12:55:58.556Z,4.85
2023-01-07T13:01:15.602Z,6.70
2023-01-07T13:06:20.981Z,4.55
2023-01-07T13:11:45.069Z,4.45
2023-01-07T13:16:43.799Z,4.05
2023-01-07T13:21:47.706Z,1.92
2023-01-07T13:27:04.763Z,2.60
2023-01-07T13:33:03.702Z,1.20
2023-01-07T13:38:02.535Z,0.88
2023-01-07T13:43:13.237Z,1.23
2023-01-07T13:48:22.630Z,2.03
2023-01-07T13:53:21.464Z,1.40
2023-01-07T13:58:29.745Z,1.60
2023-01-07T14:03:28.429Z,1.83
2023-01-07T14:08:28.752Z,3.00
2023-01-07T14:14:02.656Z,2.15
2023-01-07T14:19:03.545Z,1.52
2023-01-07T14:24:26.881Z,1.67
2023-01-07T14:29:54.366Z,1.50
2023-01-07T14:35:01.157Z,1.35
2023-01-07T14:40:00.037Z,1.52
2023-01-07T14:45:01.651Z,1.52
2023-01-07T14:50:33.002Z,1.67
2023-01-07T14:55:54.602Z,3.35
2023-01-07T15:06:27.137Z,3.30
2023-01-07T15:11:45.497Z,4.65
2023-01-07T15:16:49.408Z,6.80
2023-01-07T15:22:25.832Z,5.00
2023-01-07T15:27:31.936Z,5.20
2023-01-07T15:33:07.360Z,4.97
2023-01-07T15:38:24.483Z,7.97
2023-01-07T15:43:26.523Z,6.57
2023-01-07T15:48:25.232Z,5.95
2023-01-07T15:53:26.572Z,5.85
2023-01-07T15:58:40.345Z,5.30
2023-01-07T16:03:39.799Z,8.02
2023-01-07T16:08:38.886Z,5.45
2023-01-07T16:13:37.670Z,9.32
2023-01-07T16:18:36.530Z,8.27
2023-01-07T16:23:37.898Z,10.82
2023-01-07T16:28:59.862Z,8.43
2023-01-07T16:34:00.527Z,8.18
2023-01-07T16:39:04.575Z,8.40
2023-01-07T16:44:03.345Z,10.27
2023-01-07T16:49:11.343Z,8.32
2023-01-07T16:54:23.406Z,7.72
2023-01-07T16:59:27.911Z,8.68
2023-01-07T17:04:30.005Z,12.82
2023-01-07T17:09:36.124Z,7.95
2023-01-07T17:14:35.116Z,10.50
2023-01-07T17:19:40.651Z,13.23
2023-01-07T17:24:39.349Z,11.55
2023-01-07T17:29:39.460Z,12.05
2023-01-07T17:34:38.195Z,11.52
2023-01-07T17:39:36.949Z,10.88
2023-01-07T17:44:35.782Z,13.73
2023-01-07T17:49:34.506Z,12.57
2023-01-07T17:54:33.322Z,13.02
2023-01-07T17:59:33.067Z,14.15
2023-01-07T18:04:31.821Z,15.65
2023-01-07T18:09:30.539Z,23.63
2023-01-07T18:14:29.458Z,21.23
2023-01-07T18:19:28.266Z,22.23
2023-01-07T18:24:27.018Z,21.77
2023-01-07T18:29:26.183Z,17.67
2023-01-07T18:34:26.389Z,15.23
2023-01-07T18:39:25.153Z,14.63
2023-01-07T18:44:24.719Z,13.05
2023-01-07T18:49:23.680Z,13.57
2023-01-07T18:54:25.491Z,15.35
2023-01-07T18:59:24.660Z,20.40
2023-01-07T19:04:24.326Z,17.67
2023-01-07T19:09:23.374Z,15.63
2023-01-07T19:14:22.691Z,14.27
2023-01-07T19:19:21.440Z,14.85
2023-01-07T19:24:20.974Z,18.05
2023-01-07T19:29:20.003Z,16.38
2023-01-07T19:34:19.790Z,13.63
2023-01-07T19:39:21.818Z,14.88
2023-01-07T19:44:20.595Z,13.18
2023-01-07T19:49:19.358Z,16.00
2023-01-07T19:54:18.255Z,13.82
2023-01-07T19:59:16.967Z,14.48
2023-01-07T20:04:15.751Z,15.00
2023-01-07T20:09:14.621Z,14.13
2023-01-07T20:14:13.899Z,12.05
2023-01-07T20:19:13.862Z,15.13
2023-01-07T20:24:13.631Z,10.38
2023-01-07T20:29:12.794Z,6.65
2023-01-07T20:34:11.717Z,9.02
2023-01-07T20:39:10.440Z,10.65
2023-01-07T20:44:11.980Z,9.07
2023-01-07T20:49:11.805Z,17.17
2023-01-07T20:54:10.662Z,15.98
2023-01-07T20:59:10.964Z,12.57
2023-01-07T21:04:09.789Z,13.93
2023-01-07T21:09:09.107Z,14.13
2023-01-07T21:14:08.001Z,16.92
2023-01-07T21:19:06.850Z,14.02
2023-01-07T21:24:05.712Z,13.80
2023-01-07T21:29:04.473Z,15.18
2023-01-07T21:34:03.468Z,13.02
2023-01-07T21:39:02.370Z,10.07
2023-01-07T21:44:01.282Z,12.50
2023-01-07T21:49:03.701Z,14.65
2023-01-07T21:54:02.471Z,13.27
2023-01-07T21:59:01.780Z,11.40
2023-01-07T22:04:01.447Z,10.65
2023-01-07T22:09:06.125Z,12.23
2023-01-07T22:14:04.991Z,10.77
2023-01-07T22:19:04.554Z,12.73
2023-01-07T22:24:03.698Z,10.10
2023-01-07T22:29:06.376Z,12.30
2023-01-07T22:34:06.977Z,10.50
2023-01-07T22:39:11.136Z,11.43
2023-01-07T22:44:14.724Z,8.57
2023-01-07T22:49:15.059Z,8.15
2023-01-07T22:54:16.187Z,8.38
2023-01-07T22:59:14.942Z,8.75
2023-01-07T23:04:13.741Z,9.13
2023-01-07T23:09:12.618Z,9.90
2023-01-07T23:14:11.541Z,10.82
2023-01-07T23:19:10.905Z,8.43
2023-01-07T23:24:10.412Z,9.50
2023-01-07T23:29:10.053Z,8.02
2023-01-07T23:34:09.417Z,10.57
2023-01-07T23:39:08.165Z,11.73
2023-01-07T23:44:07.172Z,8.00
2023-01-07T23:49:05.950Z,9.85
2023-01-07T23:54:04.842Z,11.00
2023-01-07T23:59:03.735Z,9.25
